Time;durP1;ratioP1;P1;durP2;ratioP2;P2;SDS_P1;SDS_P2;PMS_P1;PMS_P2;Temp;Humidity;BMP_temperature;BMP_pressure;BME280_temperature;BME280_humidity;BME280_pressure;Samples;Min_cycle;Max_cycle;Signal;HPM_P1;HPM_P2
2021/05/11 00:00:09;;;;;;;2.87;1.40;;;21.10;99.90;;;;;;5036308;28;20219;-90
2021/05/11 00:02:40;;;;;;;2.43;1.33;;;21.10;99.90;;;;;;5035745;28;20279;-88
2021/05/11 00:05:12;;;;;;;3.93;1.80;;;21.30;99.90;;;;;;5039191;28;20312;-89
2021/05/11 00:07:43;;;;;;;3.57;1.90;;;21.20;99.90;;;;;;5036849;28;20220;-89
2021/05/11 00:10:15;;;;;;;2.90;1.50;;;21.10;99.90;;;;;;5035783;28;20225;-90
2021/05/11 00:12:46;;;;;;;2.77;1.60;;;21.20;99.90;;;;;;5036494;28;20205;-89
2021/05/11 00:15:18;;;;;;;2.90;1.43;;;21.40;99.90;;;;;;5037076;28;20205;-90
2021/05/11 00:17:49;;;;;;;2.70;1.30;;;21.60;99.90;;;;;;5038520;28;20242;-89
2021/05/11 00:20:22;;;;;;;4.13;1.40;;;21.50;99.90;;;;;;5037073;28;20197;-89
2021/05/11 00:22:53;;;;;;;1.23;0.90;;;21.30;99.90;;;;;;5037819;28;20205;-89
2021/05/11 00:25:27;;;;;;;1.57;0.90;;;21.00;99.90;;;;;;5037644;28;20201;-88
2021/05/11 00:27:58;;;;;;;2.20;1.50;;;20.90;99.90;;;;;;5021591;28;20213;-89
2021/05/11 00:30:29;;;;;;;2.13;1.20;;;20.90;99.90;;;;;;5034835;28;20653;-88
2021/05/11 00:33:00;;;;;;;4.33;1.10;;;20.70;99.90;;;;;;5021918;28;20292;-89
2021/05/11 00:35:33;;;;;;;3.90;0.90;;;20.60;99.90;;;;;;5038143;28;20219;-89
2021/05/11 00:38:03;;;;;;;4.63;1.10;;;20.70;99.90;;;;;;4315953;28;10000596;-89
2021/05/11 00:40:35;;;;;;;2.23;0.67;;;21.00;99.90;;;;;;5020084;28;20532;-87
2021/05/11 00:43:06;;;;;;;1.83;0.97;;;20.80;99.90;;;;;;5026780;28;20204;-89
2021/05/11 00:45:37;;;;;;;4.37;0.90;;;20.70;99.90;;;;;;5034985;28;20253;-89
2021/05/11 00:48:08;;;;;;;2.07;0.73;;;20.50;99.90;;;;;;5055169;28;20201;-89
2021/05/11 00:50:39;;;;;;;2.20;0.87;;;20.40;99.90;;;;;;5050019;28;20463;-88
2021/05/11 00:53:10;;;;;;;1.80;1.00;;;20.30;99.90;;;;;;5049111;28;20631;-88
2021/05/11 00:55:44;;;;;;;3.83;1.07;;;20.30;99.90;;;;;;5051970;28;20201;-88
2021/05/11 00:58:15;;;;;;;0.90;0.70;;;20.10;99.90;;;;;;5048821;28;20239;-88
2021/05/11 01:00:46;;;;;;;3.00;0.60;;;20.00;99.90;;;;;;5039980;28;20264;-89
2021/05/11 01:03:17;;;;;;;1.00;0.70;;;20.10;99.90;;;;;;5035047;28;20209;-89
2021/05/11 01:05:48;;;;;;;0.97;0.67;;;20.10;99.90;;;;;;5034356;28;20205;-89
2021/05/11 01:08:19;;;;;;;0.80;0.70;;;20.40;99.90;;;;;;5035045;28;20335;-89
2021/05/11 01:10:52;;;;;;;1.63;0.90;;;20.60;99.90;;;;;;5033862;28;20220;-90
2021/05/11 01:13:23;;;;;;;2.47;0.80;;;20.60;99.90;;;;;;5034273;28;20201;-89
2021/05/11 01:15:54;;;;;;;1.57;0.73;;;20.80;99.90;;;;;;5034339;28;20205;-89
2021/05/11 01:18:31;;;;;;;1.00;0.60;;;21.20;99.90;;;;;;5034811;28;20658;-88
2021/05/11 01:21:16;;;;;;;1.17;0.70;;;21.20;99.90;;;;;;5034073;28;20213;-90
2021/05/11 01:24:05;;;;;;;1.20;0.80;;;21.00;99.90;;;;;;5034577;28;20235;-89
2021/05/11 01:26:42;;;;;;;1.70;0.90;;;21.00;99.90;;;;;;5046053;28;20231;-89
2021/05/11 01:29:27;;;;;;;2.00;0.90;;;21.10;99.90;;;;;;5054727;28;20204;-90
2021/05/11 01:32:26;;;;;;;1.27;0.87;;;20.80;99.90;;;;;;5054066;28;20267;-89
2021/05/11 01:49:05;;;;;;;1.93;0.97;;;21.70;99.90;;;;;;5029110;28;20209;-88
2021/05/11 01:51:53;;;;;;;1.80;1.00;;;21.50;99.90;;;;;;5052959;28;20536;-88
2021/05/11 02:22:48;;;;;;;1.20;0.60;;;17.20;99.90;;;;;;5057093;28;20201;-91
2021/05/11 02:25:20;;;;;;;1.70;0.80;;;17.00;99.90;;;;;;5040827;28;20205;-91
2021/05/11 02:27:51;;;;;;;1.37;0.67;;;16.90;99.90;;;;;;5023649;28;20284;-91
2021/05/11 02:30:25;;;;;;;2.10;0.77;;;16.70;99.90;;;;;;5056938;28;20210;-91
2021/05/11 02:32:55;;;;;;;1.03;0.60;;;16.60;99.90;;;;;;5057318;28;20590;-91
2021/05/11 02:35:26;;;;;;;1.00;0.70;;;16.50;99.90;;;;;;5057248;28;20211;-91
2021/05/11 02:37:56;;;;;;;1.70;0.70;;;16.50;99.90;;;;;;5057154;28;20238;-92
2021/05/11 02:40:26;;;;;;;2.13;0.83;;;16.40;99.90;;;;;;5057264;28;20205;-91
2021/05/11 02:43:00;;;;;;;1.20;0.80;;;16.30;99.90;;;;;;5060058;28;20215;-91
2021/05/11 02:45:34;;;;;;;0.93;0.70;;;16.20;99.90;;;;;;5057305;28;20209;-91
2021/05/11 02:48:04;;;;;;;1.87;0.80;;;16.10;99.90;;;;;;5057887;28;20209;-91
2021/05/11 02:50:35;;;;;;;1.83;0.80;;;16.00;99.90;;;;;;5056938;28;20208;-91
2021/05/11 02:53:06;;;;;;;2.07;0.73;;;16.00;99.90;;;;;;5041261;28;20590;-90
2021/05/11 02:55:36;;;;;;;1.00;0.60;;;15.90;99.90;;;;;;5037161;28;20209;-90
2021/05/11 02:58:07;;;;;;;0.40;0.40;;;15.80;99.90;;;;;;5035562;28;20239;-91
2021/05/11 03:00:39;;;;;;;0.70;0.47;;;15.70;99.90;;;;;;5039174;28;20206;-90
2021/05/11 03:03:10;;;;;;;1.20;0.70;;;15.70;99.90;;;;;;5056819;28;20204;-90
2021/05/11 03:05:42;;;;;;;1.00;0.67;;;15.60;99.90;;;;;;5057811;28;20215;-90
2021/05/11 03:08:15;;;;;;;0.40;0.40;;;15.50;99.90;;;;;;5057747;28;20204;-90
2021/05/11 03:10:47;;;;;;;0.80;0.43;;;15.50;99.90;;;;;;5056594;28;20212;-91
2021/05/11 03:13:18;;;;;;;0.80;0.50;;;15.40;99.90;;;;;;5059856;28;20207;-91
2021/05/11 03:15:50;;;;;;;1.10;0.63;;;15.30;99.90;;;;;;5065250;28;20263;-90
2021/05/11 03:18:21;;;;;;;2.20;0.53;;;15.20;99.90;;;;;;5057871;28;20246;-91
2021/05/11 03:20:52;;;;;;;1.47;0.67;;;15.10;99.90;;;;;;5054364;28;20197;-91
2021/05/11 03:23:23;;;;;;;1.33;0.60;;;15.00;99.90;;;;;;5043504;28;20216;-91
2021/05/11 03:25:54;;;;;;;1.07;0.60;;;14.80;99.90;;;;;;5023563;28;20205;-91
2021/05/11 03:28:25;;;;;;;2.53;0.70;;;14.70;99.90;;;;;;5043712;28;20303;-90
2021/05/11 03:30:57;;;;;;;1.87;0.80;;;14.60;99.90;;;;;;5042076;28;20209;-90
2021/05/11 03:33:28;;;;;;;1.87;0.97;;;14.50;99.90;;;;;;5006628;28;20231;-91
2021/05/11 03:35:59;;;;;;;0.50;0.40;;;14.40;99.90;;;;;;5041142;28;20197;-91
2021/05/11 03:38:30;;;;;;;0.50;0.40;;;14.30;99.90;;;;;;5038287;28;20316;-91
2021/05/11 03:41:01;;;;;;;1.00;0.40;;;14.20;99.90;;;;;;5041782;28;20219;-90
2021/05/11 03:43:38;;;;;;;2.53;0.53;;;14.10;99.90;;;;;;5039477;28;20205;-90
2021/05/11 03:46:10;;;;;;;0.47;0.40;;;14.00;99.90;;;;;;5036575;28;20200;-90
2021/05/11 03:48:41;;;;;;;0.93;0.57;;;13.90;99.90;;;;;;5037021;28;20200;-90
2021/05/11 03:51:14;;;;;;;2.50;0.43;;;13.90;99.90;;;;;;5036913;28;20673;-91
2021/05/11 03:53:45;;;;;;;1.23;0.50;;;13.80;99.90;;;;;;5045392;28;20219;-90
2021/05/11 03:56:16;;;;;;;1.90;0.40;;;13.70;99.90;;;;;;5024508;28;20212;-91
2021/05/11 03:58:47;;;;;;;1.10;0.50;;;13.60;99.90;;;;;;5035837;28;20625;-90
2021/05/11 04:01:19;;;;;;;1.63;0.60;;;13.60;99.90;;;;;;5035025;28;20213;-91
2021/05/11 04:03:50;;;;;;;1.83;0.57;;;13.50;99.90;;;;;;5035906;28;20262;-91
2021/05/11 04:06:22;;;;;;;1.27;0.60;;;13.40;99.90;;;;;;5035775;28;20233;-90
2021/05/11 04:08:55;;;;;;;1.67;0.60;;;13.30;99.90;;;;;;5035762;28;20228;-91
2021/05/11 04:11:50;;;;;;;1.77;0.70;;;13.20;99.90;;;;;;5034897;28;20207;-91
2021/05/11 04:17:07;;;;;;;1.63;0.53;;;13.10;99.90;;;;;;5035534;28;20539;-91
2021/05/11 04:19:39;;;;;;;1.80;0.50;;;13.00;99.90;;;;;;5018696;28;20244;-91
2021/05/11 04:22:10;;;;;;;1.90;0.60;;;12.90;99.90;;;;;;5034829;28;20228;-91
2021/05/11 04:24:41;;;;;;;1.40;0.60;;;12.80;99.90;;;;;;5035453;28;20308;-91
2021/05/11 04:27:11;;;;;;;1.07;0.53;;;12.80;99.90;;;;;;5018130;28;20224;-91
2021/05/11 04:29:42;;;;;;;2.10;0.60;;;12.70;99.90;;;;;;5034421;28;20215;-91
2021/05/11 04:32:15;;;;;;;1.50;0.60;;;12.70;99.90;;;;;;5034452;28;20209;-91
2021/05/11 04:34:48;;;;;;;2.00;0.63;;;12.60;99.90;;;;;;5017796;28;20599;-91
2021/05/11 04:37:21;;;;;;;1.50;0.60;;;12.50;99.90;;;;;;5014997;28;20201;-90
2021/05/11 04:39:53;;;;;;;1.10;0.50;;;12.50;99.90;;;;;;5015493;28;20233;-90
2021/05/11 04:42:24;;;;;;;0.40;0.40;;;12.40;99.90;;;;;;5016384;28;20288;-91
2021/05/11 04:44:56;;;;;;;1.10;0.60;;;12.40;99.90;;;;;;5016208;28;20232;-90
2021/05/11 04:47:45;;;;;;;1.67;0.77;;;12.40;99.90;;;;;;5015422;28;20213;-90
2021/05/11 04:50:18;;;;;;;0.80;0.60;;;12.30;99.90;;;;;;5015138;28;20782;-91
2021/05/11 04:52:49;;;;;;;1.33;0.73;;;12.20;99.90;;;;;;5030836;28;20316;-90
2021/05/11 04:55:20;;;;;;;1.60;0.50;;;12.10;99.90;;;;;;5034872;28;20223;-90
2021/05/11 04:57:50;;;;;;;0.83;0.63;;;12.10;99.90;;;;;;5018200;28;20680;-90
2021/05/11 05:00:21;;;;;;;0.93;0.53;;;12.10;99.90;;;;;;5034492;28;20204;-90
2021/05/11 05:02:55;;;;;;;1.13;0.77;;;12.10;99.90;;;;;;5035389;28;20205;-90
2021/05/11 05:05:28;;;;;;;1.93;0.83;;;12.10;99.90;;;;;;5017887;28;20216;-91
2021/05/11 05:07:58;;;;;;;1.67;1.20;;;12.00;99.90;;;;;;5035107;28;20276;-90
2021/05/11 05:10:30;;;;;;;1.10;1.00;;;11.90;99.90;;;;;;5034412;28;20207;-91
2021/05/11 05:13:01;;;;;;;2.47;0.90;;;11.90;99.90;;;;;;5035141;28;20732;-91
2021/05/11 05:15:32;;;;;;;2.80;0.90;;;11.90;99.90;;;;;;5035277;28;20209;-91
2021/05/11 05:18:04;;;;;;;1.70;1.13;;;11.80;99.90;;;;;;5035439;28;20274;-91
2021/05/11 05:20:35;;;;;;;3.43;0.90;;;11.70;99.90;;;;;;5034614;28;20282;-91
2021/05/11 05:23:06;;;;;;;1.30;0.77;;;11.70;99.90;;;;;;5035306;28;20209;-90
2021/05/11 05:25:37;;;;;;;1.80;0.87;;;11.60;99.90;;;;;;5034684;28;20212;-91
2021/05/11 05:28:09;;;;;;;1.70;0.87;;;11.70;99.90;;;;;;5034566;28;20216;-90
2021/05/11 05:30:41;;;;;;;3.13;0.90;;;11.70;99.90;;;;;;5034084;28;20205;-90
2021/05/11 05:33:13;;;;;;;1.60;0.80;;;11.70;99.90;;;;;;5034775;28;20219;-91
2021/05/11 05:35:45;;;;;;;2.50;0.97;;;11.60;99.90;;;;;;5035383;28;20290;-91
2021/05/11 05:38:16;;;;;;;3.20;0.97;;;11.60;99.90;;;;;;5034957;28;20243;-90
2021/05/11 05:40:54;;;;;;;2.67;1.10;;;11.60;99.90;;;;;;5037462;28;20205;-90
2021/05/11 05:43:24;;;;;;;3.47;0.90;;;11.60;99.90;;;;;;5038796;28;20300;-89
2021/05/11 05:45:55;;;;;;;3.70;1.40;;;11.50;99.90;;;;;;5046572;28;20284;-90
2021/05/11 05:48:28;;;;;;;2.50;0.90;;;11.40;99.90;;;;;;5057099;28;20244;-89
2021/05/11 05:51:00;;;;;;;3.87;0.80;;;11.40;99.90;;;;;;5040321;28;20217;-90
2021/05/11 05:53:36;;;;;;;2.20;0.80;;;11.30;99.90;;;;;;5050692;28;20362;-90
2021/05/11 05:56:08;;;;;;;2.20;0.80;;;11.20;99.90;;;;;;5059591;28;20207;-90
2021/05/11 05:58:40;;;;;;;1.53;1.00;;;11.20;99.90;;;;;;5059091;28;20723;-90
2021/05/11 06:01:11;;;;;;;3.80;1.00;;;11.20;99.90;;;;;;5060391;28;20197;-90
2021/05/11 06:03:51;;;;;;;1.80;0.80;;;11.10;99.90;;;;;;5061186;28;20224;-90
2021/05/11 06:06:22;;;;;;;3.07;1.17;;;11.10;99.90;;;;;;5044844;28;20319;-90
2021/05/11 06:08:53;;;;;;;1.97;1.10;;;11.10;99.90;;;;;;5058698;28;20208;-90
2021/05/11 06:11:29;;;;;;;1.30;0.70;;;11.10;99.90;;;;;;5067416;28;20284;-89
2021/05/11 06:14:09;;;;;;;2.67;1.10;;;11.00;99.90;;;;;;5079016;28;20255;-90
2021/05/11 06:19:30;;;;;;;3.50;1.10;;;10.90;99.90;;;;;;5059233;28;20205;-91
2021/05/11 06:22:01;;;;;;;1.50;1.00;;;10.80;99.90;;;;;;5058331;28;20203;-90
2021/05/11 06:24:32;;;;;;;3.33;1.30;;;10.90;99.90;;;;;;5040703;28;20196;-90
2021/05/11 06:27:04;;;;;;;4.70;1.13;;;10.80;99.90;;;;;;5021119;28;20275;-90
2021/05/11 06:29:38;;;;;;;2.63;1.10;;;10.70;99.90;;;;;;5040971;28;20201;-90
2021/05/11 06:32:10;;;;;;;4.53;1.53;;;10.70;99.90;;;;;;5036639;28;20671;-90
2021/05/11 06:34:46;;;;;;;4.23;1.73;;;10.70;99.90;;;;;;5020375;28;20306;-90
2021/05/11 06:37:16;;;;;;;3.27;1.37;;;10.70;99.90;;;;;;5036997;28;20211;-90
2021/05/11 06:39:49;;;;;;;5.00;1.33;;;10.70;99.90;;;;;;5037948;28;20236;-90
2021/05/11 06:42:23;;;;;;;6.33;1.27;;;10.60;99.90;;;;;;5036407;28;20208;-90
2021/05/11 06:45:06;;;;;;;3.53;1.30;;;10.60;99.90;;;;;;5036747;28;20240;-89
2021/05/11 06:48:00;;;;;;;3.23;1.40;;;10.50;99.90;;;;;;5019357;28;20209;-90
2021/05/11 06:50:39;;;;;;;3.83;1.33;;;10.50;99.90;;;;;;5018907;28;20303;-89
2021/05/11 06:53:12;;;;;;;5.67;1.20;;;10.40;99.90;;;;;;5036637;28;20217;-89
2021/05/11 06:55:46;;;;;;;4.17;1.23;;;10.40;99.90;;;;;;5036409;28;20209;-89
2021/05/11 06:58:18;;;;;;;4.93;1.20;;;10.30;99.90;;;;;;5036843;28;20208;-91
2021/05/11 07:00:49;;;;;;;4.77;1.10;;;10.20;99.90;;;;;;5035661;28;20227;-91
2021/05/11 07:03:20;;;;;;;5.30;1.57;;;10.20;99.90;;;;;;5036541;28;20267;-91
2021/05/11 07:05:53;;;;;;;3.70;1.20;;;10.10;99.90;;;;;;5036478;28;20229;-90
2021/05/11 07:08:28;;;;;;;4.57;1.10;;;10.20;99.90;;;;;;5036599;28;20659;-91
2021/05/11 07:11:07;;;;;;;2.53;1.13;;;10.10;99.90;;;;;;5036580;28;20295;-91
2021/05/11 07:13:37;;;;;;;4.70;1.50;;;10.10;99.90;;;;;;5036130;28;20205;-91
2021/05/11 07:16:09;;;;;;;5.10;1.60;;;10.10;99.90;;;;;;5035758;28;20288;-91
2021/05/11 07:18:40;;;;;;;7.20;1.43;;;10.00;99.90;;;;;;5036076;28;20243;-91
2021/05/11 07:21:13;;;;;;;5.93;1.47;;;10.00;99.90;;;;;;5035332;28;20212;-91
2021/05/11 07:23:44;;;;;;;3.67;1.40;;;9.90;99.90;;;;;;5035622;28;20233;-92
2021/05/11 07:26:25;;;;;;;7.33;1.60;;;9.90;99.90;;;;;;5037648;28;20219;-91
2021/05/11 07:29:07;;;;;;;4.27;0.97;;;9.90;99.90;;;;;;5035948;28;20295;-91
2021/05/11 07:31:39;;;;;;;3.67;1.50;;;9.80;99.90;;;;;;5035579;28;20651;-91
2021/05/11 07:34:13;;;;;;;4.43;1.03;;;9.80;99.90;;;;;;5036236;28;20209;-91
2021/05/11 07:36:48;;;;;;;4.43;1.60;;;9.70;99.90;;;;;;5035890;28;20213;-92
2021/05/11 07:39:22;;;;;;;4.53;1.60;;;9.70;99.90;;;;;;5036093;28;20232;-90
2021/05/11 07:41:54;;;;;;;5.53;1.67;;;9.60;99.90;;;;;;5018106;28;20211;-91
2021/05/11 07:44:25;;;;;;;3.77;1.60;;;9.60;99.90;;;;;;5036037;28;20216;-91
2021/05/11 07:47:03;;;;;;;5.20;1.50;;;9.60;99.90;;;;;;5035480;28;20213;-91
2021/05/11 08:14:52;;;;;;;3.03;1.27;;;9.30;99.90;;;;;;5050241;28;20244;-90
2021/05/11 08:17:23;;;;;;;6.33;1.60;;;9.30;99.90;;;;;;5046973;28;20221;-90
2021/05/11 08:20:04;;;;;;;6.23;1.87;;;9.20;99.90;;;;;;5036374;28;20247;-91
2021/05/11 08:28:12;;;;;;;3.60;1.30;;;9.20;99.90;;;;;;5035301;28;20232;-92
2021/05/11 08:30:43;;;;;;;5.90;1.50;;;9.20;99.90;;;;;;5034099;28;20218;-91
2021/05/11 08:33:14;;;;;;;6.57;1.60;;;9.10;99.90;;;;;;5034810;28;20662;-91
2021/05/11 08:35:45;;;;;;;5.37;1.53;;;9.20;99.90;;;;;;5034764;28;20277;-90
2021/05/11 08:38:16;;;;;;;8.00;1.67;;;9.20;99.90;;;;;;5034517;28;20212;-90
2021/05/11 08:40:48;;;;;;;4.20;1.40;;;9.20;99.90;;;;;;5033751;28;20232;-90
2021/05/11 08:43:30;;;;;;;5.93;1.40;;;9.10;99.90;;;;;;5034136;28;20209;-90
2021/05/11 08:46:03;;;;;;;4.83;1.60;;;9.00;99.90;;;;;;5034933;28;20216;-90
2021/05/11 08:48:34;;;;;;;6.10;1.60;;;9.00;99.90;;;;;;5034810;28;20215;-90
2021/05/11 08:51:10;;;;;;;5.23;1.80;;;9.00;99.90;;;;;;5033973;28;20209;-90
2021/05/11 08:54:13;;;;;;;4.53;1.53;;;8.90;99.90;;;;;;5034645;28;20216;-90
2021/05/11 09:05:26;;;;;;;4.47;1.93;;;8.70;99.90;;;;;;5034266;28;20217;-90
2021/05/11 09:08:11;;;;;;;6.87;1.87;;;8.70;99.90;;;;;;5033703;28;20208;-90
2021/05/11 09:24:58;;;;;;;5.13;1.90;;;8.50;99.90;;;;;;5024183;28;20219;-90
2021/05/11 09:27:43;;;;;;;4.47;1.63;;;8.50;99.90;;;;;;5038092;28;20216;-90
2021/05/11 09:30:28;;;;;;;5.70;1.90;;;8.50;99.90;;;;;;5036986;28;20223;-92
2021/05/11 09:33:13;;;;;;;8.97;2.00;;;8.40;99.90;;;;;;5038188;28;20219;-90
2021/05/11 09:56:20;;;;;;;7.93;2.00;;;8.20;99.90;;;;;;5028565;28;20569;-90
2021/05/11 10:49:33;;;;;;;4.63;1.97;;;7.60;99.90;;;;;;5031309;28;20215;-90
2021/05/11 10:52:38;;;;;;;6.33;2.00;;;7.70;99.90;;;;;;5036837;28;20270;-90
2021/05/11 10:55:15;;;;;;;3.43;1.77;;;7.60;99.90;;;;;;5036664;28;20214;-90
2021/05/11 10:57:51;;;;;;;5.07;1.70;;;7.70;99.90;;;;;;5037323;28;20209;-90
2021/05/11 11:00:42;;;;;;;7.03;2.03;;;7.70;99.90;;;;;;5037795;28;20237;-90
2021/05/11 11:03:15;;;;;;;4.37;1.60;;;7.80;99.90;;;;;;5037001;28;20208;-90
2021/05/11 11:05:48;;;;;;;5.57;2.00;;;7.70;99.90;;;;;;5037138;28;20231;-90
2021/05/11 11:08:33;;;;;;;5.40;1.77;;;7.70;99.90;;;;;;5021126;28;20668;-89
2021/05/11 11:11:12;;;;;;;4.27;1.83;;;7.70;99.90;;;;;;5035025;28;20211;-91
2021/05/11 11:13:47;;;;;;;2.43;1.40;;;7.70;99.90;;;;;;5038000;28;20218;-90
2021/05/11 11:16:18;;;;;;;3.70;1.80;;;7.60;99.90;;;;;;5036341;28;20282;-90
2021/05/11 11:18:50;;;;;;;5.33;1.90;;;7.60;99.90;;;;;;5035920;28;20217;-90
2021/05/11 11:21:35;;;;;;;9.00;1.87;;;7.50;99.90;;;;;;5035117;28;20241;-91
2021/05/11 11:24:06;;;;;;;4.30;1.67;;;7.50;99.90;;;;;;5036606;28;20254;-90
2021/05/11 11:26:41;;;;;;;6.30;2.10;;;7.50;99.90;;;;;;5018707;28;20219;-89
2021/05/11 11:29:14;;;;;;;8.80;2.17;;;7.40;99.90;;;;;;5036313;28;20288;-90
2021/05/11 11:31:46;;;;;;;6.33;1.93;;;7.40;99.90;;;;;;5035481;28;20215;-91
2021/05/11 11:34:20;;;;;;;4.83;2.17;;;7.40;99.90;;;;;;5019885;28;20244;-90
2021/05/11 11:36:56;;;;;;;5.80;1.63;;;7.50;99.90;;;;;;5035722;28;20205;-90
2021/05/11 11:39:29;;;;;;;6.50;1.77;;;7.50;99.90;;;;;;5050612;28;20199;-90
2021/05/11 11:42:02;;;;;;;3.70;1.80;;;7.40;99.90;;;;;;5055275;28;20288;-90
2021/05/11 11:44:38;;;;;;;10.43;1.90;;;7.40;99.90;;;;;;5057557;28;20196;-90
2021/05/11 11:47:10;;;;;;;10.97;2.70;;;7.40;99.90;;;;;;5037248;28;20214;-89
2021/05/11 11:49:44;;;;;;;4.10;2.20;;;7.30;99.90;;;;;;5037113;28;20216;-89
2021/05/11 11:52:23;;;;;;;6.17;2.20;;;7.30;99.90;;;;;;5036218;28;20218;-90
2021/05/11 11:57:46;;;;;;;5.90;2.00;;;7.20;99.90;;;;;;5011590;28;20211;-90
2021/05/11 12:00:21;;;;;;;7.77;2.83;;;7.20;99.90;;;;;;5015646;28;20290;-90
2021/05/11 12:02:58;;;;;;;6.27;2.10;;;7.30;99.90;;;;;;5016410;28;20200;-90
2021/05/11 12:05:31;;;;;;;9.00;2.10;;;7.30;99.90;;;;;;5015794;28;20580;-89
2021/05/11 12:08:19;;;;;;;8.53;2.13;;;7.30;99.90;;;;;;5015867;28;20601;-90
2021/05/11 12:10:54;;;;;;;6.20;2.50;;;7.20;99.90;;;;;;5014893;28;20201;-90
2021/05/11 12:13:27;;;;;;;6.17;2.10;;;7.20;99.90;;;;;;5015445;28;20213;-90
2021/05/11 12:16:16;;;;;;;5.63;2.07;;;7.20;99.90;;;;;;5015915;28;20278;-90
2021/05/11 12:19:06;;;;;;;6.50;2.13;;;7.20;99.90;;;;;;5017443;28;20201;-90
2021/05/11 12:21:49;;;;;;;4.40;2.00;;;7.20;99.90;;;;;;5017275;28;20678;-90
2021/05/11 12:24:25;;;;;;;5.77;2.07;;;7.20;99.90;;;;;;5016022;28;20323;-90
2021/05/11 12:27:12;;;;;;;6.10;2.27;;;7.20;99.90;;;;;;5015966;28;20607;-90
2021/05/11 12:30:03;;;;;;;4.03;1.90;;;7.20;99.90;;;;;;4999138;28;20566;-91
2021/05/11 12:32:36;;;;;;;3.57;1.80;;;7.20;99.90;;;;;;5018374;28;20300;-90
2021/05/11 12:35:10;;;;;;;8.63;2.47;;;7.10;99.90;;;;;;5020335;28;20215;-90
2021/05/11 12:37:52;;;;;;;5.77;2.47;;;7.10;99.90;;;;;;5036938;28;20223;-90
2021/05/11 12:40:28;;;;;;;5.93;2.23;;;7.10;99.90;;;;;;5036662;28;20228;-90
2021/05/11 12:43:01;;;;;;;4.30;2.00;;;7.10;99.90;;;;;;5035313;28;20220;-89
2021/05/11 12:45:36;;;;;;;8.77;2.73;;;7.10;99.90;;;;;;5035761;28;20209;-90
2021/05/11 12:48:11;;;;;;;6.37;2.00;;;7.10;99.90;;;;;;5040728;28;20210;-90
2021/05/11 12:50:43;;;;;;;11.73;3.17;;;7.20;99.90;;;;;;5065587;28;20218;-90
2021/05/11 12:53:33;;;;;;;4.97;1.87;;;7.20;99.90;;;;;;5072453;28;20219;-91
2021/05/11 12:56:22;;;;;;;7.83;1.90;;;7.20;99.90;;;;;;5048188;28;20676;-90
2021/05/11 12:59:04;;;;;;;6.27;2.00;;;7.20;99.90;;;;;;5044830;28;20205;-90
2021/05/11 13:01:49;;;;;;;9.67;2.13;;;7.20;99.90;;;;;;5041732;28;20236;-90
2021/05/11 13:16:20;;;;;;;6.70;2.20;;;7.30;99.90;;;;;;5039783;28;20208;-90
2021/05/11 13:27:27;;;;;;;7.27;2.23;;;7.50;99.90;;;;;;5054725;28;20222;-91
2021/05/11 13:32:57;;;;;;;4.57;1.90;;;7.50;99.90;;;;;;5053231;28;20246;-90
2021/05/11 13:35:30;;;;;;;6.03;2.00;;;7.60;99.90;;;;;;5037638;28;20588;-90
2021/05/11 13:38:03;;;;;;;12.27;2.57;;;7.60;99.90;;;;;;5054514;28;20203;-90
2021/05/11 13:40:34;;;;;;;4.60;1.90;;;7.70;99.90;;;;;;5056079;28;20221;-90
2021/05/11 13:43:05;;;;;;;4.80;1.73;;;7.80;99.90;;;;;;5056955;28;20314;-90
2021/05/11 13:45:36;;;;;;;6.93;2.50;;;7.90;99.90;;;;;;5056310;28;20255;-90
2021/05/11 13:48:12;;;;;;;10.33;2.47;;;7.90;99.90;;;;;;5054501;28;20222;-88
2021/05/11 13:53:31;;;;;;;7.23;2.30;;;8.00;99.90;;;;;;5049264;28;20282;-89
2021/05/11 13:56:24;;;;;;;9.10;2.10;;;8.10;99.90;;;;;;5054531;28;20215;-89
2021/05/11 14:02:02;;;;;;;4.73;2.10;;;8.20;99.90;;;;;;5055540;28;20246;-89
2021/05/11 14:04:33;;;;;;;6.53;2.00;;;8.30;99.90;;;;;;5057864;28;20299;-89
2021/05/11 14:07:05;;;;;;;7.97;2.33;;;8.50;99.90;;;;;;5058398;28;20211;-89
2021/05/11 14:09:38;;;;;;;5.27;1.90;;;8.50;99.90;;;;;;5049439;28;20208;-89
2021/05/11 14:12:09;;;;;;;7.17;2.20;;;8.50;99.90;;;;;;5020004;28;20211;-89
2021/05/11 14:14:40;;;;;;;6.07;2.00;;;8.50;99.90;;;;;;5037774;28;20216;-89
2021/05/11 14:17:11;;;;;;;5.83;2.00;;;8.60;99.90;;;;;;5037994;28;20213;-90
2021/05/11 14:19:43;;;;;;;7.93;2.03;;;8.60;99.90;;;;;;5037892;28;20216;-89
2021/05/11 14:22:14;;;;;;;5.33;1.93;;;8.70;99.90;;;;;;5037445;28;20271;-90
2021/05/11 14:24:50;;;;;;;6.77;2.30;;;8.70;99.90;;;;;;5021800;28;20201;-91
2021/05/11 14:27:21;;;;;;;11.77;2.20;;;8.80;99.90;;;;;;5022337;28;20262;-90
2021/05/11 14:29:51;;;;;;;33.33;5.27;;;8.90;99.90;;;;;;5038858;28;20209;-90
2021/05/11 14:32:22;;;;;;;9.33;2.27;;;9.00;99.90;;;;;;5037268;28;20213;-89
2021/05/11 14:34:53;;;;;;;6.43;2.23;;;9.10;99.90;;;;;;5037210;28;20654;-90
2021/05/11 14:37:25;;;;;;;6.87;2.10;;;9.20;99.90;;;;;;5037988;28;20217;-90
2021/05/11 14:39:56;;;;;;;6.47;2.60;;;9.30;99.90;;;;;;5042203;28;20212;-89
2021/05/11 14:42:27;;;;;;;6.83;2.30;;;9.40;99.90;;;;;;5037234;28;20241;-90
2021/05/11 14:44:58;;;;;;;5.37;1.87;;;9.40;99.90;;;;;;5036603;28;20219;-89
2021/05/11 14:47:29;;;;;;;8.60;2.30;;;9.50;99.90;;;;;;5038322;28;20231;-90
2021/05/11 14:50:00;;;;;;;9.00;1.90;;;9.70;99.90;;;;;;5037871;28;20308;-90
2021/05/11 14:52:31;;;;;;;6.30;1.70;;;10.20;99.90;;;;;;5037883;28;20213;-89
2021/05/11 14:55:03;;;;;;;5.50;1.87;;;10.50;99.90;;;;;;5036940;28;20209;-89
2021/05/11 14:57:34;;;;;;;8.67;1.87;;;10.80;99.90;;;;;;5038548;28;20213;-90
2021/05/11 15:00:05;;;;;;;8.33;2.20;;;11.00;99.90;;;;;;5036170;28;20235;-90
2021/05/11 15:02:37;;;;;;;7.07;2.03;;;11.00;99.90;;;;;;5036730;28;20260;-90
2021/05/11 15:05:09;;;;;;;5.70;2.10;;;11.30;99.90;;;;;;5037725;28;20282;-90
2021/05/11 15:07:41;;;;;;;5.70;1.57;;;11.30;99.90;;;;;;5037592;28;20677;-89
2021/05/11 15:10:14;;;;;;;4.77;1.80;;;11.70;99.90;;;;;;5050763;28;20193;-90
2021/05/11 15:12:46;;;;;;;6.10;1.67;;;11.70;99.90;;;;;;5058305;28;20201;-89
2021/05/11 15:15:20;;;;;;;5.40;1.93;;;11.40;99.90;;;;;;5057823;28;20201;-91
2021/05/11 15:18:03;;;;;;;5.53;1.63;;;11.40;99.90;;;;;;5021976;28;20212;-90
2021/05/11 15:20:36;;;;;;;5.60;1.80;;;11.20;99.90;;;;;;5037901;28;20205;-90
2021/05/11 15:23:08;;;;;;;5.03;1.80;;;11.20;99.90;;;;;;5037021;28;20236;-90
2021/05/11 15:25:41;;;;;;;4.93;2.07;;;11.20;99.90;;;;;;5036755;28;20235;-90
2021/05/11 15:28:11;;;;;;;4.97;1.63;;;11.10;99.90;;;;;;5035970;28;20296;-90
2021/05/11 15:30:44;;;;;;;7.50;1.67;;;11.10;99.90;;;;;;5035551;28;20280;-90
2021/05/11 15:33:15;;;;;;;6.53;1.70;;;11.20;99.90;;;;;;5036585;28;20221;-90
2021/05/11 15:35:45;;;;;;;5.10;1.53;;;11.30;99.90;;;;;;5036152;28;20201;-90
2021/05/11 15:38:16;;;;;;;5.00;2.00;;;11.30;99.90;;;;;;5036742;28;20220;-90
2021/05/11 15:40:49;;;;;;;6.80;1.73;;;11.30;99.90;;;;;;5035576;28;20227;-90
2021/05/11 15:43:20;;;;;;;4.40;1.40;;;11.30;99.90;;;;;;5036893;28;20237;-90
2021/05/11 15:45:51;;;;;;;4.30;1.50;;;11.40;99.90;;;;;;5019494;28;20213;-89
2021/05/11 15:48:23;;;;;;;5.40;1.53;;;11.50;99.90;;;;;;5036828;28;20310;-89
2021/05/11 15:50:59;;;;;;;5.50;1.93;;;11.60;99.90;;;;;;5035973;28;20213;-89
2021/05/11 15:53:30;;;;;;;4.53;2.00;;;11.70;99.90;;;;;;5036904;28;20235;-89
2021/05/11 15:56:03;;;;;;;5.70;1.53;;;11.70;99.90;;;;;;5036880;28;20241;-89
2021/05/11 15:58:34;;;;;;;6.13;1.73;;;11.50;99.90;;;;;;5037137;28;20287;-89
2021/05/11 16:01:06;;;;;;;4.43;1.90;;;11.60;99.90;;;;;;5035302;28;20216;-89
2021/05/11 16:03:37;;;;;;;8.90;2.10;;;11.60;99.90;;;;;;5036346;28;20224;-89
2021/05/11 16:06:09;;;;;;;5.83;1.53;;;11.70;99.90;;;;;;5036657;28;20343;-90
2021/05/11 16:08:40;;;;;;;6.00;1.87;;;11.80;99.90;;;;;;5036488;28;20318;-89
2021/05/11 16:11:13;;;;;;;7.40;1.77;;;11.90;99.90;;;;;;5036103;28;20205;-89
2021/05/11 16:13:44;;;;;;;3.53;1.47;;;11.90;99.90;;;;;;5021075;28;20209;-89
2021/05/11 16:16:15;;;;;;;4.63;1.87;;;12.00;99.90;;;;;;5043884;28;20277;-89
2021/05/11 16:18:47;;;;;;;9.17;2.23;;;12.00;99.90;;;;;;5031770;28;20626;-89
2021/05/11 16:21:18;;;;;;;4.23;1.70;;;12.10;99.90;;;;;;5036168;28;20209;-90
2021/05/11 16:23:49;;;;;;;5.23;2.30;;;12.20;99.90;;;;;;5038574;28;20228;-89
2021/05/11 16:26:21;;;;;;;8.27;1.93;;;12.30;99.90;;;;;;5037786;28;20581;-90
2021/05/11 16:28:53;;;;;;;4.40;1.70;;;12.50;99.90;;;;;;5036482;28;20213;-90
2021/05/11 16:31:31;;;;;;;6.43;2.30;;;12.60;99.90;;;;;;5039160;28;20208;-89
2021/05/11 16:34:03;;;;;;;6.70;1.70;;;12.70;99.90;;;;;;5020266;28;20223;-88
2021/05/11 16:36:35;;;;;;;7.60;2.10;;;12.80;99.90;;;;;;5003321;28;20213;-89
2021/05/11 16:39:06;;;;;;;4.70;1.77;;;12.80;99.90;;;;;;5036143;28;20756;-90
2021/05/11 16:41:39;;;;;;;6.67;1.70;;;12.90;99.90;;;;;;5035559;28;20227;-89
2021/05/11 16:44:11;;;;;;;9.30;1.87;;;13.00;99.90;;;;;;5035467;28;20581;-91
2021/05/11 16:46:44;;;;;;;8.50;2.03;;;13.10;99.90;;;;;;5035250;28;20208;-89
2021/05/11 16:49:15;;;;;;;8.90;2.03;;;13.20;99.90;;;;;;5035426;28;20213;-89